createdAt,value
2017-09-15T00:00:50.654Z,20.50
2017-09-15T00:03:16.906Z,14.00
2017-09-15T00:05:43.210Z,23.20
2017-09-15T00:08:09.467Z,22.00
2017-09-15T00:10:36.387Z,21.50
2017-09-15T00:13:02.503Z,18.13
2017-09-15T00:15:28.691Z,20.57
2017-09-15T00:17:55.500Z,28.60
2017-09-15T00:20:21.606Z,20.77
2017-09-15T00:22:47.686Z,25.70
2017-09-15T00:25:13.844Z,21.80
2017-09-15T00:27:39.923Z,20.30
2017-09-15T00:30:07.620Z,23.03
2017-09-15T00:32:34.626Z,24.03
2017-09-15T00:35:00.754Z,24.17
2017-09-15T00:37:27.592Z,26.50
2017-09-15T00:39:53.790Z,25.13
2017-09-15T00:42:19.941Z,27.20
2017-09-15T00:44:46.002Z,27.90
2017-09-15T00:47:12.214Z,22.47
2017-09-15T00:49:38.315Z,23.27
2017-09-15T00:52:04.493Z,28.90
2017-09-15T00:54:30.578Z,26.47
2017-09-15T00:56:57.432Z,27.87
2017-09-15T00:59:23.511Z,26.53
2017-09-15T01:01:49.607Z,26.27
2017-09-15T01:04:15.702Z,24.60
2017-09-15T01:06:41.862Z,29.23
2017-09-15T01:09:07.938Z,29.20
2017-09-15T01:11:34.823Z,23.60
2017-09-15T01:14:00.914Z,29.20
2017-09-15T01:16:26.982Z,24.50
2017-09-15T01:18:53.049Z,25.70
2017-09-15T01:21:19.858Z,24.90
2017-09-15T01:23:45.939Z,27.27
2017-09-15T01:26:12.024Z,25.73
2017-09-15T01:28:38.098Z,22.30
2017-09-15T01:31:04.158Z,24.03
2017-09-15T01:33:30.321Z,26.70
2017-09-15T01:35:57.139Z,27.10
2017-09-15T01:38:23.979Z,29.43
2017-09-15T01:40:50.868Z,28.40
2017-09-15T01:43:17.019Z,24.50
2017-09-15T01:45:43.322Z,30.60
2017-09-15T01:48:09.374Z,21.90
2017-09-15T01:50:35.414Z,24.60
2017-09-15T01:53:01.491Z,30.13
2017-09-15T01:55:27.530Z,27.60
2017-09-15T01:57:53.590Z,21.30
2017-09-15T02:00:19.634Z,27.70
2017-09-15T02:02:45.691Z,22.73
2017-09-15T02:05:11.790Z,17.37
2017-09-15T02:07:37.838Z,20.77
2017-09-15T02:10:03.904Z,23.23
2017-09-15T02:12:29.976Z,22.77
2017-09-15T02:14:56.027Z,14.30
2017-09-15T02:17:22.085Z,14.43
2017-09-15T02:19:48.893Z,15.20
2017-09-15T02:22:14.963Z,14.97
2017-09-15T02:24:41.022Z,18.93
2017-09-15T02:27:07.063Z,16.83
2017-09-15T02:29:33.239Z,16.43
2017-09-15T02:31:59.348Z,12.47
2017-09-15T02:34:26.134Z,13.97
2017-09-15T02:36:52.202Z,13.73
2017-09-15T02:39:19.000Z,16.90
2017-09-15T02:41:45.075Z,13.37
2017-09-15T02:44:11.155Z,13.43
2017-09-15T02:46:37.219Z,16.60
2017-09-15T02:49:04.051Z,15.20
2017-09-15T02:51:30.858Z,14.50
2017-09-15T02:53:56.922Z,14.20
2017-09-15T02:56:23.753Z,12.20
2017-09-15T02:58:50.662Z,14.53
2017-09-15T03:01:16.803Z,17.63
2017-09-15T03:03:42.928Z,10.90
2017-09-15T03:06:08.987Z,12.07
2017-09-15T03:08:35.085Z,14.70
2017-09-15T03:11:01.147Z,16.33
2017-09-15T03:13:27.222Z,15.37
2017-09-15T03:15:53.282Z,13.87
2017-09-15T03:18:19.359Z,16.17
2017-09-15T03:20:45.454Z,12.73
2017-09-15T03:23:11.718Z,17.67
2017-09-15T03:25:37.774Z,14.23
2017-09-15T03:28:03.919Z,13.07
2017-09-15T03:30:30.016Z,12.70
2017-09-15T03:32:56.125Z,18.70
2017-09-15T03:35:22.935Z,17.63
2017-09-15T03:37:49.009Z,18.57
2017-09-15T03:40:15.820Z,15.17
2017-09-15T03:42:42.038Z,17.80
2017-09-15T03:45:08.096Z,19.20
2017-09-15T03:47:34.886Z,15.70
2017-09-15T03:50:01.039Z,16.10
2017-09-15T03:52:27.186Z,17.17
2017-09-15T03:54:53.987Z,18.20
2017-09-15T03:57:20.052Z,18.23
2017-09-15T03:59:46.867Z,17.63
2017-09-15T04:02:12.925Z,21.47
2017-09-15T04:04:38.978Z,25.33
2017-09-15T04:07:05.094Z,19.40
2017-09-15T04:09:31.154Z,18.50
2017-09-15T04:11:58.826Z,22.10
2017-09-15T04:14:24.970Z,24.83
2017-09-15T04:16:51.748Z,20.83
2017-09-15T04:19:17.847Z,23.17
2017-09-15T04:21:43.964Z,26.17
2017-09-15T04:24:10.019Z,25.60
2017-09-15T04:26:36.075Z,25.67
2017-09-15T04:29:02.135Z,25.30
2017-09-15T04:31:28.201Z,29.20
2017-09-15T04:33:54.283Z,22.60
2017-09-15T04:36:20.339Z,33.97
2017-09-15T04:38:46.539Z,26.27
2017-09-15T04:41:12.615Z,27.40
2017-09-15T04:43:38.800Z,29.30
2017-09-15T04:46:04.891Z,29.20
2017-09-15T04:48:31.696Z,25.93
2017-09-15T04:50:57.755Z,28.50
2017-09-15T04:53:25.099Z,30.10
2017-09-15T04:55:52.002Z,30.10
2017-09-15T04:58:18.107Z,23.90
2017-09-15T05:00:44.280Z,29.50
2017-09-15T05:03:11.179Z,30.00
2017-09-15T05:05:37.586Z,27.27
2017-09-15T05:08:03.718Z,23.37
2017-09-15T05:10:29.779Z,28.50
2017-09-15T05:12:55.955Z,27.47
2017-09-15T05:15:22.056Z,24.90
2017-09-15T05:17:48.107Z,29.33
2017-09-15T05:20:14.174Z,24.57
2017-09-15T05:22:40.474Z,26.40
2017-09-15T05:25:07.313Z,23.43
2017-09-15T05:27:34.986Z,25.50
2017-09-15T05:30:01.143Z,23.70
2017-09-15T05:32:27.239Z,26.93
2017-09-15T05:34:53.337Z,22.83
2017-09-15T05:37:19.398Z,25.10
2017-09-15T05:39:45.453Z,24.73
2017-09-15T05:42:12.327Z,22.43
2017-09-15T05:44:38.394Z,21.53
2017-09-15T05:47:04.465Z,19.03
2017-09-15T05:49:30.537Z,20.97
2017-09-15T05:51:56.610Z,21.90
2017-09-15T05:54:22.717Z,22.07
2017-09-15T05:56:49.565Z,22.00
2017-09-15T05:59:16.399Z,22.37
2017-09-15T06:01:43.271Z,21.83
2017-09-15T06:04:09.430Z,22.23
2017-09-15T06:06:35.519Z,22.37
2017-09-15T06:09:01.609Z,22.37
2017-09-15T06:11:28.422Z,22.83
2017-09-15T06:13:54.517Z,19.17
2017-09-15T06:16:20.650Z,25.87
2017-09-15T06:18:46.722Z,19.53
2017-09-15T06:21:13.535Z,24.20
2017-09-15T06:23:39.682Z,17.87
2017-09-15T06:26:06.585Z,19.43
2017-09-15T06:28:32.673Z,21.00
2017-09-15T06:30:58.792Z,17.23
2017-09-15T06:33:24.888Z,18.00
2017-09-15T06:35:50.967Z,17.80
2017-09-15T06:38:17.047Z,18.20
2017-09-15T06:40:43.962Z,18.20
2017-09-15T06:43:10.046Z,18.30
2017-09-15T06:45:36.144Z,17.77
2017-09-15T06:48:02.976Z,17.50
2017-09-15T06:50:29.034Z,24.10
2017-09-15T06:52:55.098Z,18.00
2017-09-15T06:55:21.267Z,16.67
2017-09-15T06:57:47.326Z,20.53
2017-09-15T07:00:13.570Z,19.03
2017-09-15T07:02:39.847Z,15.63
2017-09-15T07:05:06.094Z,16.20
2017-09-15T07:07:33.146Z,16.60
2017-09-15T07:09:59.403Z,15.17
2017-09-15T07:12:25.674Z,20.57
2017-09-15T07:14:51.933Z,15.47
2017-09-15T07:17:18.195Z,16.57
2017-09-15T07:19:44.459Z,15.60
2017-09-15T07:22:10.711Z,13.60
2017-09-15T07:24:36.974Z,17.33
2017-09-15T07:27:03.284Z,20.33
2017-09-15T07:29:29.572Z,15.10
2017-09-15T07:31:56.635Z,13.33
2017-09-15T07:34:23.620Z,12.60
2017-09-15T07:36:50.450Z,13.40
2017-09-15T07:39:17.382Z,14.17
2017-09-15T07:41:43.639Z,15.23
2017-09-15T07:44:09.899Z,13.23
2017-09-15T07:46:36.156Z,13.93
2017-09-15T07:49:02.435Z,11.63
2017-09-15T07:51:28.807Z,13.30
2017-09-15T07:53:55.099Z,11.47
2017-09-15T07:56:22.150Z,9.53
2017-09-15T07:58:48.426Z,11.93
2017-09-15T08:01:14.698Z,10.20
2017-09-15T08:03:40.938Z,10.67
2017-09-15T08:06:07.217Z,9.47
2017-09-15T08:08:33.504Z,11.00
2017-09-15T08:10:59.758Z,9.13
2017-09-15T08:13:26.019Z,10.20
2017-09-15T08:15:52.373Z,10.37
2017-09-15T08:18:18.674Z,12.37
2017-09-15T08:20:44.932Z,9.93
2017-09-15T08:23:11.214Z,8.23
2017-09-15T08:25:37.472Z,9.37
2017-09-15T08:28:03.762Z,11.13
2017-09-15T08:30:30.036Z,9.87
2017-09-15T08:32:56.376Z,9.73
2017-09-15T08:35:22.654Z,14.77
2017-09-15T08:37:48.913Z,10.70
2017-09-15T08:40:15.218Z,10.60
2017-09-15T08:42:41.475Z,12.67
2017-09-15T08:45:07.826Z,14.43
2017-09-15T08:47:34.129Z,12.10
2017-09-15T08:50:00.423Z,11.10
2017-09-15T08:52:26.694Z,16.43
2017-09-15T08:54:52.967Z,10.70
2017-09-15T08:57:19.398Z,14.73
2017-09-15T08:59:45.711Z,14.30
2017-09-15T09:02:12.743Z,14.93
2017-09-15T09:04:39.730Z,12.53
2017-09-15T09:07:06.004Z,13.20
2017-09-15T09:09:32.283Z,13.83
2017-09-15T09:11:58.670Z,10.20
2017-09-15T09:14:24.910Z,23.07
2017-09-15T09:16:51.934Z,12.33
2017-09-15T09:19:18.201Z,15.30
2017-09-15T09:21:44.455Z,12.97
2017-09-15T09:24:10.740Z,20.67
2017-09-15T09:26:37.055Z,9.70
2017-09-15T09:29:04.127Z,8.83
2017-09-15T09:31:30.404Z,12.23
2017-09-15T09:33:56.675Z,9.90
2017-09-15T09:36:22.930Z,8.73
2017-09-15T09:38:49.195Z,6.43
2017-09-15T09:41:15.446Z,6.60
2017-09-15T09:43:42.454Z,8.97
2017-09-15T09:46:08.718Z,8.90
2017-09-15T09:48:35.754Z,6.90
2017-09-15T09:51:02.042Z,7.87
2017-09-15T09:53:28.374Z,7.60
2017-09-15T09:55:54.634Z,8.57
2017-09-15T09:58:20.934Z,6.33
2017-09-15T10:00:47.196Z,7.00
2017-09-15T10:03:13.446Z,6.33
2017-09-15T10:05:40.438Z,5.80
2017-09-15T10:08:06.678Z,6.60
2017-09-15T10:10:32.937Z,5.47
2017-09-15T10:12:59.950Z,5.40
2017-09-15T10:15:26.240Z,5.73
2017-09-15T10:17:52.523Z,5.60
2017-09-15T10:20:18.845Z,6.80
2017-09-15T10:22:45.891Z,8.47
2017-09-15T10:25:12.151Z,8.73
2017-09-15T10:27:39.149Z,6.30
2017-09-15T10:30:05.515Z,7.10
2017-09-15T10:32:32.519Z,7.20
2017-09-15T10:34:58.767Z,6.13
2017-09-15T10:37:30.055Z,7.13
2017-09-15T10:39:56.331Z,9.30
2017-09-15T10:42:22.598Z,9.37
2017-09-15T10:44:49.639Z,4.87
2017-09-15T10:47:16.662Z,8.47
2017-09-15T10:49:43.038Z,5.03
2017-09-15T10:52:09.306Z,5.90
2017-09-15T10:54:35.586Z,4.83
2017-09-15T10:57:01.907Z,3.87
2017-09-15T10:59:34.415Z,2.90
2017-09-15T11:02:00.662Z,2.23
2017-09-15T11:04:26.930Z,2.20
2017-09-15T11:06:53.951Z,3.23
2017-09-15T11:09:20.244Z,3.07
2017-09-15T11:11:46.512Z,3.30
2017-09-15T11:14:12.781Z,2.17
2017-09-15T11:16:39.030Z,2.00
2017-09-15T11:19:05.375Z,2.37
2017-09-15T11:21:31.646Z,2.60
2017-09-15T11:23:58.726Z,3.00
2017-09-15T11:26:24.983Z,3.10
2017-09-15T11:28:51.307Z,5.13
2017-09-15T11:31:17.603Z,4.03
2017-09-15T11:33:43.842Z,5.20
2017-09-15T11:36:10.121Z,4.93
2017-09-15T11:38:37.118Z,5.20
2017-09-15T11:41:03.361Z,5.53
2017-09-15T11:43:29.606Z,4.47
2017-09-15T11:45:55.869Z,6.80
2017-09-15T11:48:22.886Z,5.80
2017-09-15T11:50:49.147Z,8.00
2017-09-15T11:53:15.423Z,4.60
2017-09-15T11:55:41.686Z,5.13
2017-09-15T11:58:08.690Z,4.27
2017-09-15T12:00:35.019Z,4.13
2017-09-15T12:03:01.279Z,4.03
2017-09-15T12:05:28.302Z,5.23
2017-09-15T12:07:55.426Z,5.43
2017-09-15T12:10:21.759Z,5.13
2017-09-15T12:12:48.007Z,6.23
2017-09-15T12:15:14.258Z,5.50
2017-09-15T12:17:40.515Z,4.30
2017-09-15T12:20:06.939Z,4.80
2017-09-15T12:22:33.937Z,4.43
2017-09-15T12:25:00.179Z,5.73
2017-09-15T12:27:27.119Z,2.83
2017-09-15T12:29:53.387Z,3.70
2017-09-15T12:32:19.682Z,1.87
2017-09-15T12:34:46.075Z,1.23
2017-09-15T12:37:12.436Z,1.30
2017-09-15T12:39:38.686Z,0.97
2017-09-15T12:42:05.762Z,1.00
2017-09-15T12:44:32.089Z,0.97
2017-09-15T12:46:58.392Z,1.20
2017-09-15T12:49:25.398Z,2.70
2017-09-15T12:51:51.735Z,1.13
2017-09-15T12:54:18.073Z,1.57
2017-09-15T12:56:45.395Z,1.13
2017-09-15T12:59:11.790Z,1.63
2017-09-15T13:01:38.059Z,1.30
2017-09-15T13:04:04.343Z,1.57
2017-09-15T13:06:30.578Z,1.80
2017-09-15T13:08:56.855Z,1.57
2017-09-15T13:11:23.079Z,2.90
2017-09-15T13:13:49.310Z,1.17
2017-09-15T13:16:15.535Z,2.60
2017-09-15T13:18:41.763Z,1.53
2017-09-15T13:21:08.015Z,2.47
2017-09-15T13:23:35.094Z,1.83
2017-09-15T13:26:01.363Z,4.80
2017-09-15T13:28:27.714Z,2.10
2017-09-15T13:30:54.715Z,4.60
2017-09-15T13:33:21.016Z,2.30
2017-09-15T13:35:47.987Z,3.37
2017-09-15T13:38:14.220Z,2.63
2017-09-15T13:40:40.466Z,2.53
2017-09-15T13:43:06.830Z,2.30
2017-09-15T13:45:33.810Z,2.80
2017-09-15T13:48:00.071Z,2.10
2017-09-15T13:50:26.323Z,4.60
2017-09-15T13:52:52.578Z,1.80
2017-09-15T13:55:18.838Z,3.90
2017-09-15T13:57:45.087Z,2.40
2017-09-15T14:00:11.363Z,3.57
2017-09-15T14:02:37.670Z,1.93
2017-09-15T14:05:04.731Z,1.77
2017-09-15T14:07:31.082Z,1.90
2017-09-15T14:09:57.338Z,1.70
2017-09-15T14:12:23.583Z,1.10
2017-09-15T14:14:49.843Z,2.33
2017-09-15T14:17:16.123Z,1.57
2017-09-15T14:19:42.376Z,1.60
2017-09-15T14:22:09.447Z,1.40
2017-09-15T14:24:35.706Z,1.70
2017-09-15T14:27:01.960Z,3.80
2017-09-15T14:29:28.242Z,1.40
2017-09-15T14:31:54.554Z,3.20
2017-09-15T14:34:20.835Z,2.20
2017-09-15T14:36:47.110Z,2.13
2017-09-15T14:39:14.130Z,2.37
2017-09-15T14:41:40.495Z,2.50
2017-09-15T14:44:06.747Z,1.23
2017-09-15T14:46:33.028Z,1.40
2017-09-15T14:49:00.076Z,1.33
2017-09-15T14:51:27.147Z,2.30
2017-09-15T14:53:53.461Z,3.70
2017-09-15T14:56:20.463Z,1.93
2017-09-15T14:58:46.721Z,1.67
2017-09-15T15:01:13.707Z,2.33
2017-09-15T15:03:39.976Z,2.33
2017-09-15T15:06:06.296Z,2.10
2017-09-15T15:08:32.542Z,4.57
2017-09-15T15:10:58.805Z,3.50
2017-09-15T15:13:25.056Z,1.70
2017-09-15T15:15:51.304Z,2.17
2017-09-15T15:18:17.599Z,3.20
2017-09-15T15:20:43.843Z,2.50
2017-09-15T15:23:10.132Z,3.70
2017-09-15T15:25:36.362Z,3.40
2017-09-15T15:28:02.667Z,4.20
2017-09-15T15:30:29.651Z,2.10
2017-09-15T15:32:55.916Z,1.87
2017-09-15T15:35:22.265Z,1.80
2017-09-15T15:37:49.274Z,3.77
2017-09-15T15:40:15.524Z,2.20
2017-09-15T15:42:42.534Z,2.43
2017-09-15T15:45:08.913Z,4.17
2017-09-15T15:47:35.906Z,2.23
2017-09-15T15:50:02.183Z,2.70
2017-09-15T15:52:29.269Z,2.50
2017-09-15T15:54:55.551Z,3.37
2017-09-15T15:57:21.788Z,2.87
2017-09-15T15:59:48.018Z,1.93
2017-09-15T16:02:15.003Z,1.77
2017-09-15T16:04:41.302Z,2.70
2017-09-15T16:07:07.651Z,1.63
2017-09-15T16:09:33.922Z,2.10
2017-09-15T16:12:00.770Z,2.00
2017-09-15T16:14:27.002Z,1.80
2017-09-15T16:16:53.255Z,2.27
2017-09-15T16:19:19.492Z,3.87
2017-09-15T16:21:46.478Z,4.37
2017-09-15T16:24:12.771Z,2.50
2017-09-15T16:26:39.068Z,3.67
2017-09-15T16:29:05.403Z,4.30
2017-09-15T16:31:31.612Z,3.20
2017-09-15T16:33:57.882Z,2.27
2017-09-15T16:36:24.117Z,2.50
2017-09-15T16:38:56.374Z,2.40
2017-09-15T16:41:28.742Z,3.07
2017-09-15T16:44:01.787Z,4.40
2017-09-15T16:46:34.287Z,3.23
2017-09-15T16:49:06.683Z,3.70
2017-09-15T16:51:39.324Z,3.10
2017-09-15T16:54:05.918Z,2.77
2017-09-15T16:56:33.599Z,2.93
2017-09-15T16:59:00.229Z,2.90
2017-09-15T17:01:27.982Z,4.13
2017-09-15T17:03:55.179Z,4.17
2017-09-15T17:06:21.527Z,4.20
2017-09-15T17:08:47.897Z,4.93
2017-09-15T17:11:14.166Z,4.60
2017-09-15T17:13:40.443Z,4.30
2017-09-15T17:16:06.847Z,4.37
2017-09-15T17:18:33.522Z,4.00
2017-09-15T17:21:00.293Z,4.13
2017-09-15T17:23:27.602Z,4.17
2017-09-15T17:25:54.646Z,4.43
2017-09-15T17:28:21.744Z,5.20
2017-09-15T17:30:48.017Z,4.83
2017-09-15T17:33:14.257Z,5.03
2017-09-15T17:35:40.507Z,4.43
2017-09-15T17:38:07.511Z,5.10
2017-09-15T17:40:33.865Z,3.67
2017-09-15T17:43:01.094Z,5.27
2017-09-15T17:45:27.757Z,3.50
2017-09-15T17:47:55.016Z,4.33
2017-09-15T17:50:21.439Z,3.27
2017-09-15T17:52:47.748Z,3.87
2017-09-15T17:55:14.023Z,5.70
2017-09-15T17:57:40.304Z,5.43
2017-09-15T18:00:06.587Z,3.57
2017-09-15T18:02:33.066Z,6.90
2017-09-15T18:05:00.304Z,6.20
2017-09-15T18:07:27.153Z,6.77
2017-09-15T18:09:55.212Z,5.00
2017-09-15T18:12:22.496Z,5.70
2017-09-15T18:14:49.162Z,4.83
2017-09-15T18:17:15.430Z,7.70
2017-09-15T18:19:41.680Z,6.57
2017-09-15T18:22:07.972Z,5.13
2017-09-15T18:24:34.714Z,4.40
2017-09-15T18:27:01.578Z,6.13
2017-09-15T18:29:28.859Z,4.60
2017-09-15T18:31:58.719Z,6.77
2017-09-15T18:34:26.405Z,5.20
2017-09-15T18:36:54.999Z,5.03
2017-09-15T18:39:22.251Z,6.43
2017-09-15T18:41:48.567Z,5.00
2017-09-15T18:44:14.889Z,5.73
2017-09-15T18:46:41.195Z,7.87
2017-09-15T18:49:09.484Z,7.87
2017-09-15T18:51:37.034Z,14.73
2017-09-15T18:54:04.456Z,8.70
2017-09-15T18:56:31.300Z,7.10
2017-09-15T18:58:58.702Z,5.83
2017-09-15T19:01:28.675Z,7.47
2017-09-15T19:03:57.291Z,6.03
2017-09-15T19:06:25.619Z,6.53
2017-09-15T19:08:59.509Z,5.97
2017-09-15T19:11:28.818Z,8.83
2017-09-15T19:13:56.756Z,9.03
2017-09-15T19:16:27.671Z,8.53
2017-09-15T19:18:58.130Z,9.23
2017-09-15T19:21:28.090Z,6.40
2017-09-15T19:23:57.222Z,6.03
2017-09-15T19:26:25.867Z,5.93
2017-09-15T19:28:52.218Z,6.70
2017-09-15T19:31:19.047Z,6.67
2017-09-15T19:33:45.173Z,7.83
2017-09-15T19:36:12.037Z,10.03
2017-09-15T19:38:41.435Z,10.33
2017-09-15T19:41:08.611Z,7.10
2017-09-15T19:43:36.394Z,5.90
2017-09-15T19:46:09.166Z,7.13
2017-09-15T19:48:36.074Z,7.10
2017-09-15T19:51:03.852Z,7.43
2017-09-15T19:53:33.913Z,8.63
2017-09-15T19:56:01.679Z,11.67
2017-09-15T19:58:29.316Z,8.30
2017-09-15T20:01:01.264Z,7.23
2017-09-15T20:03:38.856Z,6.37
2017-09-15T20:06:09.465Z,8.47
2017-09-15T20:08:38.517Z,7.53
2017-09-15T20:11:06.822Z,8.47
2017-09-15T20:13:35.081Z,11.23
2017-09-15T20:16:01.897Z,8.73
2017-09-15T20:18:29.034Z,10.40
2017-09-15T20:21:01.265Z,12.23
2017-09-15T20:23:29.758Z,11.20
2017-09-15T20:26:00.657Z,9.03
2017-09-15T20:28:30.457Z,9.00
2017-09-15T20:30:59.167Z,8.73
2017-09-15T20:33:30.974Z,7.57
2017-09-15T20:35:59.178Z,7.37
2017-09-15T20:38:35.773Z,8.13
2017-09-15T20:41:04.041Z,8.97
2017-09-15T20:43:31.737Z,6.83
2017-09-15T20:46:04.780Z,7.37
2017-09-15T20:48:32.581Z,7.80
2017-09-15T20:51:01.129Z,7.40
2017-09-15T20:53:29.935Z,8.10
2017-09-15T20:56:01.621Z,9.57
2017-09-15T20:58:29.850Z,8.20
2017-09-15T21:00:59.183Z,10.80
2017-09-15T21:03:30.588Z,10.10
2017-09-15T21:06:00.692Z,9.13
2017-09-15T21:08:30.785Z,8.30
2017-09-15T21:10:59.395Z,7.53
2017-09-15T21:13:29.097Z,7.60
2017-09-15T21:16:02.066Z,7.50
2017-09-15T21:18:34.607Z,8.20
2017-09-15T21:21:05.882Z,7.50
2017-09-15T21:23:34.990Z,7.63
2017-09-15T21:26:05.803Z,9.53
2017-09-15T21:28:36.302Z,8.13
2017-09-15T21:31:07.207Z,8.70
2017-09-15T21:33:35.589Z,9.00
2017-09-15T21:36:04.646Z,8.20
2017-09-15T21:38:32.841Z,10.27
2017-09-15T21:41:04.295Z,9.60
2017-09-15T21:43:34.215Z,7.57
2017-09-15T21:46:02.290Z,9.00
2017-09-15T21:48:30.976Z,13.20
2017-09-15T21:50:59.757Z,8.10
2017-09-15T21:53:29.352Z,7.30
2017-09-15T21:56:02.370Z,8.87
2017-09-15T21:58:30.929Z,7.53
2017-09-15T22:01:01.381Z,7.27
2017-09-15T22:03:29.771Z,13.60
2017-09-15T22:05:58.569Z,8.77
2017-09-15T22:08:29.051Z,13.50
2017-09-15T22:10:57.095Z,9.83
2017-09-15T22:13:25.759Z,9.10
2017-09-15T22:15:56.300Z,12.30
2017-09-15T22:18:26.084Z,8.33
2017-09-15T22:20:55.276Z,8.93
2017-09-15T22:23:22.956Z,10.53
2017-09-15T22:25:51.826Z,10.10
2017-09-15T22:28:18.130Z,8.80
2017-09-15T22:30:48.519Z,7.20
2017-09-15T22:33:14.835Z,7.73
2017-09-15T22:35:41.130Z,6.77
2017-09-15T22:38:07.439Z,7.07
2017-09-15T22:40:34.672Z,8.83
2017-09-15T22:43:01.431Z,7.77
2017-09-15T22:45:33.536Z,7.80
2017-09-15T22:48:00.602Z,9.00
2017-09-15T22:50:29.077Z,8.07
2017-09-15T22:52:58.068Z,7.97
2017-09-15T22:55:28.494Z,11.13
2017-09-15T22:57:57.741Z,7.40
2017-09-15T23:00:25.938Z,6.93
2017-09-15T23:02:57.022Z,9.03
2017-09-15T23:05:27.656Z,6.67
2017-09-15T23:07:58.138Z,8.23
2017-09-15T23:10:29.479Z,7.77
2017-09-15T23:13:00.041Z,8.33
2017-09-15T23:15:29.782Z,7.50
2017-09-15T23:17:58.131Z,7.43
2017-09-15T23:20:26.457Z,9.13
2017-09-15T23:22:54.658Z,7.63
2017-09-15T23:25:22.382Z,7.13
2017-09-15T23:27:50.053Z,9.30
2017-09-15T23:30:16.335Z,8.60
2017-09-15T23:32:42.633Z,7.97
2017-09-15T23:35:09.498Z,8.00
2017-09-15T23:37:38.121Z,8.10
2017-09-15T23:40:07.180Z,8.87
2017-09-15T23:42:37.707Z,8.07
2017-09-15T23:45:10.106Z,8.00
2017-09-15T23:47:40.406Z,9.50
2017-09-15T23:50:10.411Z,6.70
2017-09-15T23:52:40.596Z,9.47
2017-09-15T23:55:09.291Z,7.70
2017-09-15T23:57:39.590Z,8.90
